createdAt,value
2023-09-25T00:02:08.983Z,10.79
2023-09-25T00:04:36.937Z,10.62
2023-09-25T00:07:05.380Z,10.01
2023-09-25T00:09:33.107Z,10.72
2023-09-25T00:12:01.036Z,10.61
2023-09-25T00:14:30.590Z,10.57
2023-09-25T00:16:58.958Z,10.59
2023-09-25T00:19:28.120Z,10.51
2023-09-25T00:21:55.994Z,10.53
2023-09-25T00:24:24.030Z,10.14
2023-09-25T00:26:51.884Z,10.69
2023-09-25T00:29:19.711Z,10.70
2023-09-25T00:31:47.371Z,10.48
2023-09-25T00:34:15.731Z,10.80
2023-09-25T00:36:45.272Z,10.45
2023-09-25T00:39:13.156Z,10.47
2023-09-25T00:41:41.041Z,10.93
2023-09-25T00:44:08.985Z,10.96
2023-09-25T00:46:37.212Z,11.05
2023-09-25T00:49:05.558Z,10.67
2023-09-25T00:51:33.359Z,11.20
2023-09-25T00:54:03.299Z,11.18
2023-09-25T00:56:31.210Z,11.18
2023-09-25T00:58:59.364Z,11.07
2023-09-25T01:01:27.655Z,11.07
2023-09-25T01:03:55.403Z,11.06
2023-09-25T01:06:23.500Z,10.98
2023-09-25T01:08:51.455Z,10.81
2023-09-25T01:11:20.848Z,10.10
2023-09-25T01:13:48.655Z,10.54
2023-09-25T01:16:16.462Z,10.13
2023-09-25T01:18:44.609Z,10.48
2023-09-25T01:21:12.586Z,10.48
2023-09-25T01:23:41.780Z,10.52
2023-09-25T01:26:09.480Z,10.45
2023-09-25T01:28:38.019Z,10.27
2023-09-25T01:31:08.418Z,10.38
2023-09-25T01:33:37.006Z,10.31
2023-09-25T01:36:05.265Z,10.28
2023-09-25T01:38:33.448Z,9.82
2023-09-25T01:41:02.640Z,10.14
2023-09-25T01:43:30.397Z,9.74
2023-09-25T01:45:58.383Z,9.54
2023-09-25T01:48:26.680Z,9.77
2023-09-25T01:50:54.414Z,9.71
2023-09-25T01:53:22.331Z,9.43
2023-09-25T01:55:50.593Z,9.80
2023-09-25T01:58:19.639Z,9.79
2023-09-25T02:00:47.461Z,9.81
2023-09-25T02:03:15.361Z,9.26
2023-09-25T02:05:46.141Z,9.54
2023-09-25T02:08:14.838Z,9.53
2023-09-25T02:10:42.625Z,9.64
2023-09-25T02:13:10.441Z,9.38
2023-09-25T02:15:39.557Z,9.56
2023-09-25T02:18:09.839Z,9.39
2023-09-25T02:20:37.677Z,9.40
2023-09-25T02:23:05.565Z,9.43
2023-09-25T02:25:33.469Z,9.39
2023-09-25T02:28:01.372Z,9.40
2023-09-25T02:30:29.146Z,9.39
2023-09-25T02:32:58.665Z,8.52
2023-09-25T02:35:26.525Z,9.38
2023-09-25T02:37:54.165Z,9.37
2023-09-25T02:40:21.961Z,9.32
2023-09-25T02:42:49.765Z,9.31
2023-09-25T02:45:18.376Z,9.24
2023-09-25T02:47:46.750Z,8.95
2023-09-25T02:50:16.880Z,8.66
2023-09-25T02:52:45.637Z,8.65
2023-09-25T02:55:14.381Z,9.18
2023-09-25T02:57:42.281Z,9.16
2023-09-25T03:00:12.430Z,9.09
2023-09-25T03:02:40.951Z,9.17
2023-09-25T03:05:09.442Z,9.11
2023-09-25T03:07:39.931Z,9.13
2023-09-25T03:10:08.641Z,9.00
2023-09-25T03:12:36.362Z,8.97
2023-09-25T03:15:06.590Z,9.00
2023-09-25T03:17:34.574Z,8.92
2023-09-25T03:20:04.301Z,8.93
2023-09-25T03:22:31.943Z,8.96
2023-09-25T03:25:01.150Z,7.42
2023-09-25T03:27:29.136Z,8.32
2023-09-25T03:29:56.895Z,9.00
2023-09-25T03:32:24.698Z,8.62
2023-09-25T03:34:52.534Z,8.99
2023-09-25T03:37:21.653Z,8.12
2023-09-25T03:39:49.497Z,8.96
2023-09-25T03:42:18.673Z,9.20
2023-09-25T03:44:46.418Z,9.22
2023-09-25T03:47:14.112Z,9.02
2023-09-25T03:49:43.634Z,9.40
2023-09-25T03:52:11.375Z,9.47
2023-09-25T03:54:39.813Z,9.56
2023-09-25T03:57:07.713Z,9.61
2023-09-25T03:59:36.838Z,9.63
2023-09-25T04:02:04.753Z,8.98
2023-09-25T04:04:32.574Z,9.71
2023-09-25T04:07:00.470Z,9.55
2023-09-25T04:09:28.187Z,8.29
2023-09-25T04:11:56.204Z,9.74
2023-09-25T04:14:23.998Z,9.80
2023-09-25T04:16:55.653Z,9.77
2023-09-25T04:19:23.437Z,9.86
2023-09-25T04:21:53.533Z,9.88
2023-09-25T04:24:21.295Z,9.90
2023-09-25T04:26:49.362Z,9.84
2023-09-25T04:29:19.219Z,9.71
2023-09-25T04:31:48.526Z,9.81
2023-09-25T04:34:17.766Z,9.68
2023-09-25T04:36:47.274Z,9.83
2023-09-25T04:39:17.975Z,9.60
2023-09-25T04:41:46.366Z,9.64
2023-09-25T04:44:14.211Z,9.77
2023-09-25T04:46:42.067Z,9.72
2023-09-25T04:49:10.034Z,9.70
2023-09-25T04:51:39.145Z,9.65
2023-09-25T04:54:07.537Z,9.15
2023-09-25T04:56:35.291Z,9.75
2023-09-25T04:59:03.022Z,9.88
2023-09-25T05:01:30.946Z,9.80
2023-09-25T05:03:58.820Z,9.82
2023-09-25T05:06:27.281Z,10.34
2023-09-25T05:08:56.573Z,10.36
2023-09-25T05:11:24.261Z,10.36
2023-09-25T05:13:51.996Z,10.37
2023-09-25T05:16:20.081Z,10.39
2023-09-25T05:18:48.103Z,10.43
2023-09-25T05:21:16.024Z,10.60
2023-09-25T05:23:46.026Z,10.57
2023-09-25T05:26:15.284Z,10.16
2023-09-25T05:28:43.101Z,10.61
2023-09-25T05:31:10.869Z,10.65
2023-09-25T05:33:38.813Z,10.68
2023-09-25T05:36:07.309Z,10.66
2023-09-25T05:38:35.193Z,10.58
2023-09-25T05:41:02.906Z,10.76
2023-09-25T05:43:32.024Z,10.37
2023-09-25T05:45:59.917Z,10.23
2023-09-25T05:48:27.705Z,10.32
2023-09-25T05:50:55.443Z,10.66
2023-09-25T05:53:26.862Z,10.75
2023-09-25T05:55:54.644Z,10.93
2023-09-25T05:58:22.493Z,10.89
2023-09-25T06:00:51.688Z,10.93
2023-09-25T06:03:19.669Z,10.36
2023-09-25T06:05:47.660Z,10.79
2023-09-25T06:08:15.512Z,11.06
2023-09-25T06:10:45.471Z,11.12
2023-09-25T06:13:13.265Z,11.22
2023-09-25T06:15:44.361Z,11.31
2023-09-25T06:18:13.590Z,11.54
2023-09-25T06:20:44.731Z,11.64
2023-09-25T06:23:12.459Z,11.74
2023-09-25T06:25:40.114Z,11.92
2023-09-25T06:28:09.516Z,12.16
2023-09-25T06:30:37.853Z,12.33
2023-09-25T06:33:08.104Z,12.46
2023-09-25T06:35:37.414Z,12.62
2023-09-25T06:38:05.569Z,12.78
2023-09-25T06:40:33.299Z,12.96
2023-09-25T06:43:00.982Z,12.98
2023-09-25T06:45:28.775Z,13.06
2023-09-25T06:47:56.547Z,13.17
2023-09-25T06:50:24.864Z,13.10
2023-09-25T06:52:54.134Z,13.30
2023-09-25T06:55:21.797Z,13.37
2023-09-25T06:57:49.566Z,13.49
2023-09-25T07:00:19.103Z,13.63
2023-09-25T07:02:47.622Z,13.69
2023-09-25T07:05:16.039Z,13.87
2023-09-25T07:07:43.986Z,14.07
2023-09-25T07:10:14.037Z,14.22
2023-09-25T07:12:42.067Z,14.37
2023-09-25T07:15:11.062Z,14.43
2023-09-25T07:17:38.946Z,14.54
2023-09-25T07:20:07.950Z,14.61
2023-09-25T07:22:35.784Z,14.70
2023-09-25T07:25:03.526Z,14.74
2023-09-25T07:27:32.859Z,14.71
2023-09-25T07:30:02.643Z,14.92
2023-09-25T07:32:30.803Z,14.63
2023-09-25T07:34:59.380Z,15.05
2023-09-25T07:37:27.578Z,14.68
2023-09-25T07:39:55.424Z,15.21
2023-09-25T07:42:23.277Z,15.19
2023-09-25T07:44:52.387Z,15.26
2023-09-25T07:47:20.376Z,15.33
2023-09-25T07:49:48.740Z,15.57
2023-09-25T07:52:21.281Z,15.33
2023-09-25T07:54:50.771Z,15.86
2023-09-25T07:57:20.477Z,16.01
2023-09-25T07:59:48.704Z,16.25
2023-09-25T08:02:20.914Z,16.36
2023-09-25T08:04:50.378Z,16.36
2023-09-25T08:07:19.778Z,16.05
2023-09-25T08:09:47.888Z,16.62
2023-09-25T08:12:15.802Z,16.68
2023-09-25T08:14:43.574Z,16.96
2023-09-25T08:17:11.290Z,17.04
2023-09-25T08:19:40.644Z,17.00
2023-09-25T08:22:08.928Z,17.19
2023-09-25T08:24:36.694Z,17.31
2023-09-25T08:27:05.892Z,17.54
2023-09-25T08:29:33.744Z,17.66
2023-09-25T08:32:02.145Z,17.52
2023-09-25T08:34:29.964Z,17.69
2023-09-25T08:36:59.023Z,17.95
2023-09-25T08:39:27.018Z,17.89
2023-09-25T08:41:55.226Z,17.95
2023-09-25T08:44:23.466Z,17.73
2023-09-25T08:46:52.498Z,18.34
2023-09-25T08:49:20.923Z,18.41
2023-09-25T08:51:48.715Z,18.57
2023-09-25T08:54:19.181Z,18.67
2023-09-25T08:56:48.685Z,18.80
2023-09-25T08:59:17.454Z,18.93
2023-09-25T09:01:45.325Z,18.63
2023-09-25T09:04:13.065Z,18.86
2023-09-25T09:06:41.909Z,18.78
2023-09-25T09:09:10.845Z,18.76
2023-09-25T09:11:40.555Z,18.36
2023-09-25T09:14:08.235Z,19.11
2023-09-25T09:16:35.987Z,19.02
2023-09-25T09:19:09.958Z,19.19
2023-09-25T09:21:37.853Z,18.78
2023-09-25T09:24:09.307Z,19.09
2023-09-25T09:26:38.543Z,19.11
2023-09-25T09:29:15.002Z,19.18
2023-09-25T09:31:43.432Z,19.36
2023-09-25T09:34:11.287Z,19.64
2023-09-25T09:36:39.138Z,19.64
2023-09-25T09:39:12.030Z,19.78
2023-09-25T09:41:42.773Z,19.83
2023-09-25T09:44:11.949Z,19.91
2023-09-25T09:46:43.156Z,19.98
2023-09-25T09:49:14.454Z,20.16
2023-09-25T09:51:45.714Z,20.30
2023-09-25T09:54:14.629Z,20.26
2023-09-25T09:56:43.068Z,19.97
2023-09-25T09:59:12.252Z,20.26
2023-09-25T10:01:43.223Z,20.55
2023-09-25T10:04:12.817Z,20.40
2023-09-25T10:06:50.124Z,20.68
2023-09-25T10:09:18.047Z,20.73
2023-09-25T10:11:48.365Z,20.53
2023-09-25T10:14:22.048Z,20.70
2023-09-25T10:16:59.673Z,20.89
2023-09-25T10:19:55.269Z,20.62
2023-09-25T10:22:25.344Z,20.74
2023-09-25T10:25:03.778Z,20.97
2023-09-25T10:27:33.099Z,20.95
2023-09-25T10:30:09.853Z,21.15
2023-09-25T10:32:42.874Z,20.98
2023-09-25T10:35:39.137Z,21.38
2023-09-25T10:38:30.051Z,21.47
2023-09-25T10:41:02.571Z,21.56
2023-09-25T10:43:30.584Z,21.52
2023-09-25T10:45:59.845Z,21.62
2023-09-25T10:48:28.878Z,21.85
2023-09-25T10:50:57.007Z,21.98
2023-09-25T10:53:24.856Z,22.15
2023-09-25T10:55:53.038Z,21.80
2023-09-25T10:58:22.768Z,21.55
2023-09-25T11:00:52.340Z,21.29
2023-09-25T11:03:21.870Z,21.88
2023-09-25T11:05:49.879Z,21.91
2023-09-25T11:08:18.067Z,22.09
2023-09-25T11:10:47.885Z,22.14
2023-09-25T11:13:16.213Z,21.88
2023-09-25T11:15:45.495Z,22.15
2023-09-25T11:18:14.289Z,22.14
2023-09-25T11:20:44.780Z,21.77
2023-09-25T11:23:21.485Z,22.09
2023-09-25T11:25:52.188Z,21.66
2023-09-25T11:28:21.806Z,21.35
2023-09-25T11:30:51.054Z,21.56
2023-09-25T11:33:21.094Z,21.67
2023-09-25T11:35:53.097Z,22.31
2023-09-25T11:38:23.490Z,22.52
2023-09-25T11:40:52.381Z,22.74
2023-09-25T11:43:20.769Z,21.65
2023-09-25T11:45:49.769Z,22.36
2023-09-25T11:48:19.595Z,22.13
2023-09-25T11:50:48.161Z,22.05
2023-09-25T11:53:17.732Z,22.29
2023-09-25T11:55:45.627Z,22.26
2023-09-25T11:58:13.884Z,22.58
2023-09-25T12:00:41.664Z,22.59
2023-09-25T12:03:10.308Z,22.66
2023-09-25T12:05:38.483Z,22.58
2023-09-25T12:08:07.562Z,22.44
2023-09-25T12:10:39.993Z,22.46
2023-09-25T12:13:08.466Z,22.44
2023-09-25T12:15:37.310Z,22.96
2023-09-25T12:18:06.030Z,22.57
2023-09-25T12:20:34.241Z,22.82
2023-09-25T12:23:02.058Z,22.56
2023-09-25T12:25:33.200Z,21.72
2023-09-25T12:28:02.453Z,22.74
2023-09-25T12:30:30.528Z,22.47
2023-09-25T12:32:58.251Z,22.90
2023-09-25T12:35:26.280Z,22.88
2023-09-25T12:37:56.805Z,23.15
2023-09-25T12:40:24.691Z,23.18
2023-09-25T12:42:55.958Z,22.81
2023-09-25T12:45:25.825Z,23.02
2023-09-25T12:47:53.998Z,23.31
2023-09-25T12:50:22.285Z,23.27
2023-09-25T12:52:50.138Z,22.93
2023-09-25T12:55:18.012Z,24.04
2023-09-25T12:57:45.805Z,23.16
2023-09-25T13:00:14.941Z,23.48
2023-09-25T13:02:44.121Z,23.76
2023-09-25T13:05:12.709Z,23.14
2023-09-25T13:07:40.527Z,22.53
2023-09-25T13:10:09.006Z,22.77
2023-09-25T13:12:38.275Z,22.79
2023-09-25T13:15:10.003Z,22.13
2023-09-25T13:17:38.088Z,22.51
2023-09-25T13:20:10.947Z,22.68
2023-09-25T13:22:39.930Z,22.20
2023-09-25T13:25:08.838Z,22.79
2023-09-25T13:27:38.134Z,22.28
2023-09-25T13:30:12.751Z,23.03
2023-09-25T13:32:40.810Z,23.20
2023-09-25T13:35:11.073Z,23.26
2023-09-25T13:37:38.821Z,23.06
2023-09-25T13:40:08.033Z,23.53
2023-09-25T13:42:35.920Z,23.49
2023-09-25T13:45:03.973Z,23.83
2023-09-25T13:47:34.829Z,23.76
2023-09-25T13:50:02.809Z,23.18
2023-09-25T13:52:31.988Z,23.75
2023-09-25T13:54:59.774Z,23.54
2023-09-25T13:57:27.539Z,23.85
2023-09-25T13:59:55.196Z,24.27
2023-09-25T14:02:24.073Z,24.59
2023-09-25T14:04:52.209Z,22.99
2023-09-25T14:07:21.199Z,23.68
2023-09-25T14:09:50.387Z,23.95
2023-09-25T14:12:18.151Z,23.46
2023-09-25T14:14:48.881Z,23.70
2023-09-25T14:17:16.726Z,23.51
2023-09-25T14:19:44.433Z,23.64
2023-09-25T14:22:12.223Z,22.32
2023-09-25T14:24:40.112Z,23.66
2023-09-25T14:27:11.187Z,23.55
2023-09-25T14:29:39.612Z,22.50
2023-09-25T14:32:08.514Z,22.57
2023-09-25T14:34:36.931Z,23.33
2023-09-25T14:37:04.665Z,22.23
2023-09-25T14:39:32.736Z,23.42
2023-09-25T14:42:01.107Z,22.78
2023-09-25T14:44:30.229Z,22.93
2023-09-25T14:46:58.138Z,22.96
2023-09-25T14:49:26.232Z,23.11
2023-09-25T14:51:54.320Z,23.11
2023-09-25T14:54:22.229Z,22.32
2023-09-25T14:56:49.971Z,22.34
2023-09-25T14:59:18.006Z,22.61
2023-09-25T15:01:50.319Z,22.41
2023-09-25T15:04:20.441Z,22.50
2023-09-25T15:06:50.344Z,22.64
2023-09-25T15:09:19.537Z,22.43
2023-09-25T15:11:47.222Z,22.52
2023-09-25T15:14:15.709Z,22.50
2023-09-25T15:16:43.743Z,22.56
2023-09-25T15:19:12.969Z,22.53
2023-09-25T15:21:41.154Z,21.06
2023-09-25T15:24:09.494Z,21.95
2023-09-25T15:26:37.276Z,21.95
2023-09-25T15:29:05.196Z,22.20
2023-09-25T15:31:33.092Z,22.05
2023-09-25T15:34:01.173Z,21.86
2023-09-25T15:36:30.630Z,21.94
2023-09-25T15:38:58.739Z,22.18
2023-09-25T15:41:26.570Z,22.13
2023-09-25T15:43:54.255Z,21.87
2023-09-25T15:46:22.909Z,21.91
2023-09-25T15:48:51.527Z,21.63
2023-09-25T15:51:19.393Z,20.69
2023-09-25T15:53:48.596Z,21.49
2023-09-25T15:56:16.498Z,21.00
2023-09-25T15:58:44.395Z,21.06
2023-09-25T16:01:12.216Z,21.43
2023-09-25T16:03:40.187Z,20.87
2023-09-25T16:06:08.182Z,21.38
2023-09-25T16:08:36.094Z,21.00
2023-09-25T16:11:05.146Z,21.28
2023-09-25T16:13:33.752Z,21.21
2023-09-25T16:16:01.489Z,20.99
2023-09-25T16:18:29.352Z,20.89
2023-09-25T16:21:03.535Z,20.66
2023-09-25T16:23:31.621Z,20.66
2023-09-25T16:25:59.418Z,20.52
2023-09-25T16:28:28.487Z,20.49
2023-09-25T16:30:56.293Z,20.49
2023-09-25T16:33:24.000Z,20.44
2023-09-25T16:35:51.708Z,20.35
2023-09-25T16:38:19.444Z,20.32
2023-09-25T16:40:49.259Z,20.35
2023-09-25T16:43:16.996Z,20.15
2023-09-25T16:45:46.083Z,19.86
2023-09-25T16:48:13.991Z,19.25
2023-09-25T16:50:41.792Z,19.32
2023-09-25T16:53:09.527Z,19.46
2023-09-25T16:55:37.276Z,19.29
2023-09-25T16:58:05.994Z,18.72
2023-09-25T17:00:34.097Z,18.74
2023-09-25T17:03:03.312Z,18.64
2023-09-25T17:05:32.703Z,18.54
2023-09-25T17:08:00.782Z,18.37
2023-09-25T17:10:32.014Z,18.36
2023-09-25T17:13:00.187Z,17.95
2023-09-25T17:15:35.076Z,18.00
2023-09-25T17:18:04.510Z,17.74
2023-09-25T17:20:32.241Z,17.33
2023-09-25T17:23:00.153Z,17.42
2023-09-25T17:25:27.900Z,17.33
2023-09-25T17:27:55.811Z,15.74
2023-09-25T17:30:24.843Z,16.98
2023-09-25T17:32:52.705Z,16.72
2023-09-25T17:35:22.757Z,16.65
2023-09-25T17:37:50.537Z,16.52
2023-09-25T17:40:19.261Z,16.37
2023-09-25T17:42:47.720Z,16.13
2023-09-25T17:45:15.652Z,15.65
2023-09-25T17:47:43.387Z,16.04
2023-09-25T17:50:11.536Z,15.69
2023-09-25T17:52:43.856Z,15.72
2023-09-25T17:55:11.940Z,15.57
2023-09-25T17:57:39.755Z,15.54
2023-09-25T18:00:10.098Z,14.94
2023-09-25T18:02:37.997Z,15.16
2023-09-25T18:05:07.606Z,15.00
2023-09-25T18:07:36.035Z,15.07
2023-09-25T18:10:07.246Z,14.97
2023-09-25T18:12:37.708Z,14.90
2023-09-25T18:15:09.321Z,14.77
2023-09-25T18:17:37.094Z,14.72
2023-09-25T18:20:05.590Z,14.66
2023-09-25T18:22:35.029Z,14.53
2023-09-25T18:25:03.217Z,14.37
2023-09-25T18:27:32.497Z,14.35
2023-09-25T18:30:00.231Z,14.34
2023-09-25T18:32:28.058Z,14.28
2023-09-25T18:34:55.786Z,14.23
2023-09-25T18:37:23.676Z,14.21
2023-09-25T18:39:51.466Z,14.14
2023-09-25T18:42:19.290Z,14.12
2023-09-25T18:44:48.554Z,14.17
2023-09-25T18:47:16.257Z,13.99
2023-09-25T18:49:44.540Z,13.74
2023-09-25T18:52:12.600Z,13.79
2023-09-25T18:54:40.467Z,13.71
2023-09-25T18:57:08.156Z,13.63
2023-09-25T18:59:37.826Z,12.71
2023-09-25T19:02:07.189Z,13.59
2023-09-25T19:04:35.014Z,13.46
2023-09-25T19:07:02.756Z,13.36
2023-09-25T19:09:30.921Z,13.41
2023-09-25T19:11:58.640Z,13.28
2023-09-25T19:14:26.390Z,13.30
2023-09-25T19:16:54.751Z,12.76
2023-09-25T19:19:23.936Z,13.16
2023-09-25T19:21:51.599Z,13.23
2023-09-25T19:24:19.363Z,13.01
2023-09-25T19:26:47.891Z,13.09
2023-09-25T19:29:15.599Z,13.16
2023-09-25T19:31:46.142Z,13.08
2023-09-25T19:34:15.154Z,12.95
2023-09-25T19:36:44.304Z,12.91
2023-09-25T19:39:12.270Z,12.97
2023-09-25T19:41:40.210Z,12.52
2023-09-25T19:44:08.398Z,12.91
2023-09-25T19:46:37.454Z,12.74
2023-09-25T19:49:05.946Z,12.80
2023-09-25T19:51:35.356Z,12.68
2023-09-25T19:54:05.116Z,12.59
2023-09-25T19:56:33.180Z,12.62
2023-09-25T19:59:01.392Z,12.10
2023-09-25T20:01:30.152Z,12.62
2023-09-25T20:03:58.276Z,11.20
2023-09-25T20:06:27.656Z,11.81
2023-09-25T20:08:56.122Z,12.17
2023-09-25T20:11:25.419Z,12.65
2023-09-25T20:13:53.295Z,12.54
2023-09-25T20:16:21.384Z,12.54
2023-09-25T20:18:49.467Z,12.55
2023-09-25T20:21:17.284Z,12.69
2023-09-25T20:23:45.018Z,12.62
2023-09-25T20:26:12.962Z,12.50
2023-09-25T20:28:42.396Z,12.50
2023-09-25T20:31:10.178Z,12.52
2023-09-25T20:33:38.161Z,12.54
2023-09-25T20:36:06.512Z,12.40
2023-09-25T20:38:34.423Z,12.47
2023-09-25T20:41:02.501Z,12.38
2023-09-25T20:43:30.364Z,12.29
2023-09-25T20:45:59.626Z,12.06
2023-09-25T20:48:27.391Z,12.25
2023-09-25T20:50:55.205Z,11.07
2023-09-25T20:53:23.049Z,12.20
2023-09-25T20:55:50.719Z,12.23
2023-09-25T20:58:18.572Z,12.07
2023-09-25T21:00:46.343Z,12.14
2023-09-25T21:03:16.193Z,12.10
2023-09-25T21:05:43.972Z,11.60
2023-09-25T21:08:11.699Z,12.08
2023-09-25T21:10:39.503Z,12.05
2023-09-25T21:13:07.451Z,12.08
2023-09-25T21:15:35.167Z,12.16
2023-09-25T21:18:03.005Z,12.07
2023-09-25T21:20:32.157Z,11.96
2023-09-25T21:22:59.969Z,11.95
2023-09-25T21:25:27.850Z,11.96
2023-09-25T21:27:55.685Z,11.39
2023-09-25T21:30:23.557Z,11.87
2023-09-25T21:32:51.319Z,11.65
2023-09-25T21:35:19.146Z,11.82
2023-09-25T21:37:48.226Z,11.78
2023-09-25T21:40:16.404Z,11.69
2023-09-25T21:42:44.315Z,11.71
2023-09-25T21:45:12.388Z,11.68
2023-09-25T21:47:41.281Z,11.66
2023-09-25T21:50:09.811Z,11.61
2023-09-25T21:52:37.512Z,11.64
2023-09-25T21:55:08.659Z,11.68
2023-09-25T21:57:36.498Z,11.32
2023-09-25T22:00:05.134Z,11.43
2023-09-25T22:02:34.056Z,10.77
2023-09-25T22:05:01.926Z,11.32
2023-09-25T22:07:30.395Z,10.60
2023-09-25T22:09:58.452Z,11.09
2023-09-25T22:12:27.714Z,10.45
2023-09-25T22:14:55.477Z,11.43
2023-09-25T22:17:23.259Z,11.18
2023-09-25T22:19:52.371Z,10.48
2023-09-25T22:22:20.213Z,10.90
2023-09-25T22:24:48.138Z,11.39
2023-09-25T22:27:16.000Z,11.48
2023-09-25T22:29:45.143Z,11.50
2023-09-25T22:32:13.400Z,10.82
2023-09-25T22:34:41.210Z,10.56
2023-09-25T22:37:09.061Z,11.36
2023-09-25T22:39:37.319Z,10.83
2023-09-25T22:42:05.723Z,11.33
2023-09-25T22:44:34.273Z,11.26
2023-09-25T22:47:03.670Z,11.13
2023-09-25T22:49:31.668Z,11.15
2023-09-25T22:51:59.685Z,11.14
2023-09-25T22:54:27.366Z,11.30
2023-09-25T22:56:55.028Z,11.32
2023-09-25T22:59:22.892Z,11.17
2023-09-25T23:01:50.839Z,10.80
2023-09-25T23:04:20.231Z,10.47
2023-09-25T23:06:48.058Z,11.05
2023-09-25T23:09:16.036Z,10.62
2023-09-25T23:11:43.799Z,11.07
2023-09-25T23:14:11.589Z,11.06
2023-09-25T23:16:39.581Z,10.44
2023-09-25T23:19:08.172Z,10.91
2023-09-25T23:21:37.380Z,10.32
2023-09-25T23:24:05.405Z,11.09
2023-09-25T23:26:33.176Z,10.70
2023-09-25T23:29:01.079Z,11.11
2023-09-25T23:31:28.889Z,11.14
2023-09-25T23:33:56.641Z,11.12
2023-09-25T23:36:24.474Z,11.05
2023-09-25T23:38:53.921Z,11.09
2023-09-25T23:41:21.814Z,9.94
2023-09-25T23:43:49.854Z,10.84
2023-09-25T23:46:18.034Z,10.70
2023-09-25T23:48:46.036Z,10.90
2023-09-25T23:51:13.744Z,11.00
2023-09-25T23:53:41.484Z,10.93
2023-09-25T23:56:10.637Z,11.00
2023-09-25T23:58:38.407Z,10.84
